Time;durP1;ratioP1;P1;durP2;ratioP2;P2;SDS_P1;SDS_P2;PMS_P1;PMS_P2;Temp;Humidity;BMP_temperature;BMP_pressure;BME280_temperature;BME280_humidity;BME280_pressure;Samples;Min_cycle;Max_cycle;Signal;HPM_P1;HPM_P2
2022/06/23 00:01:04;;;;;;;;;;;;;;;;;;4951449;28;19913;-65
2022/06/23 00:03:29;;;;;;;;;;;;;;;;;;4952665;28;22156;-65
2022/06/23 00:05:54;;;;;;;;;;;;;;;;;;4949106;28;20032;-65
2022/06/23 00:08:20;;;;;;;;;;;;;;;;;;4951914;28;19953;-65
2022/06/23 00:10:47;;;;;;;;;;;;;;;;;;4951776;28;19922;-66
2022/06/23 00:13:12;;;;;;;;;;;;;;;;;;4966745;28;20698;-66
2022/06/23 00:15:37;;;;;;;;;;;;;;;;;;4965407;28;19964;-67
2022/06/23 00:18:02;;;;;;;;;;;;;;;;;;4952611;28;19913;-66
2022/06/23 00:20:28;;;;;;;;;;;;;;;;;;4951226;28;19925;-66
2022/06/23 00:22:53;;;;;;;;;;;;;;;;;;4951058;28;19925;-66
2022/06/23 00:25:21;;;;;;;;;;;;;;;;;;4967151;28;20828;-66
2022/06/23 00:27:46;;;;;;;;;;;;;;;;;;4953030;28;19953;-66
2022/06/23 00:30:11;;;;;;;;;;;;;;;;;;4951887;28;20731;-66
2022/06/23 00:32:36;;;;;;;;;;;;;;;;;;4951722;28;19914;-67
2022/06/23 00:35:01;;;;;;;;;;;;;;;;;;4953453;28;19992;-66
2022/06/23 00:37:27;;;;;;;;;;;;;;;;;;4952182;28;20766;-66
2022/06/23 00:39:53;;;;;;;;;;;;;;;;;;4966180;28;19913;-66
2022/06/23 00:42:18;;;;;;;;;;;;;;;;;;4950928;28;20977;-66
2022/06/23 00:44:43;;;;;;;;;;;;;;;;;;4951508;28;19925;-66
2022/06/23 00:47:09;;;;;;;;;;;;;;;;;;4956599;28;19968;-66
2022/06/23 00:49:34;;;;;;;;;;;;;;;;;;4951359;28;19913;-66
2022/06/23 00:51:59;;;;;;;;;;;;;;;;;;4965941;28;20099;-66
2022/06/23 00:54:24;;;;;;;;;;;;;;;;;;4950886;28;19918;-66
2022/06/23 00:56:50;;;;;;;;;;;;;;;;;;4955550;28;19941;-66
2022/06/23 00:59:15;;;;;;;;;;;;;;;;;;4965695;28;19917;-66
2022/06/23 01:01:41;;;;;;;;;;;;;;;;;;4950895;28;19926;-67
2022/06/23 01:04:06;;;;;;;;;;;;;;;;;;4951082;28;19964;-65
2022/06/23 01:06:31;;;;;;;;;;;;;;;;;;4952166;28;19924;-66
2022/06/23 01:08:59;;;;;;;;;;;;;;;;;;4974071;28;20549;-65
2022/06/23 01:11:27;;;;;;;;;;;;;;;;;;4973515;28;19991;-65
2022/06/23 01:13:52;;;;;;;;;;;;;;;;;;4974345;28;19914;-65
2022/06/23 01:16:18;;;;;;;;;;;;;;;;;;4974010;28;20000;-66
2022/06/23 01:18:43;;;;;;;;;;;;;;;;;;4974055;28;20641;-66
2022/06/23 01:21:08;;;;;;;;;;;;;;;;;;4973721;28;20688;-66
2022/06/23 01:23:33;;;;;;;;;;;;;;;;;;4973625;28;19925;-66
2022/06/23 01:25:58;;;;;;;;;;;;;;;;;;4972759;28;19928;-66
2022/06/23 01:28:24;;;;;;;;;;;;;;;;;;4973759;28;20016;-66
2022/06/23 01:30:49;;;;;;;;;;;;;;;;;;4974067;28;19925;-66
2022/06/23 01:33:17;;;;;;;;;;;;;;;;;;4973155;28;22265;-66
2022/06/23 01:35:42;;;;;;;;;;;;;;;;;;4973091;28;19920;-67
2022/06/23 01:38:07;;;;;;;;;;;;;;;;;;4973447;28;19917;-66
2022/06/23 01:40:32;;;;;;;;;;;;;;;;;;4972541;28;19921;-65
2022/06/23 01:42:58;;;;;;;;;;;;;;;;;;4972577;28;19917;-66
2022/06/23 01:45:23;;;;;;;;;;;;;;;;;;4972313;28;19937;-65
2022/06/23 01:47:48;;;;;;;;;;;;;;;;;;4973315;28;19919;-65
2022/06/23 01:50:13;;;;;;;;;;;;;;;;;;4969676;28;19963;-65
2022/06/23 01:52:41;;;;;;;;;;;;;;;;;;4987512;28;20064;-66
2022/06/23 01:55:06;;;;;;;;;;;;;;;;;;4972278;28;19917;-65
2022/06/23 01:57:31;;;;;;;;;;;;;;;;;;4972622;28;19999;-66
2022/06/23 01:59:57;;;;;;;;;;;;;;;;;;4973630;28;19968;-65
2022/06/23 02:02:22;;;;;;;;;;;;;;;;;;4972422;28;19924;-66
2022/06/23 02:04:47;;;;;;;;;;;;;;;;;;4972678;28;20962;-66
2022/06/23 02:07:12;;;;;;;;;;;;;;;;;;4972230;28;19913;-66
2022/06/23 02:09:38;;;;;;;;;;;;;;;;;;4972681;28;19914;-66
2022/06/23 02:12:04;;;;;;;;;;;;;;;;;;4971979;28;19924;-66
2022/06/23 02:14:29;;;;;;;;;;;;;;;;;;4972540;28;20063;-66
2022/06/23 02:16:54;;;;;;;;;;;;;;;;;;4972621;28;20046;-67
2022/06/23 02:19:19;;;;;;;;;;;;;;;;;;4971873;28;19924;-67
2022/06/23 02:21:45;;;;;;;;;;;;;;;;;;4972156;28;19923;-67
2022/06/23 02:24:13;;;;;;;;;;;;;;;;;;4973907;28;19965;-67
2022/06/23 02:26:38;;;;;;;;;;;;;;;;;;4971611;28;19999;-66
2022/06/23 02:29:03;;;;;;;;;;;;;;;;;;4972206;28;19913;-65
2022/06/23 02:31:28;;;;;;;;;;;;;;;;;;4971895;28;19923;-65
2022/06/23 02:33:56;;;;;;;;;;;;;;;;;;4972367;28;20337;-65
2022/06/23 02:36:21;;;;;;;;;;;;;;;;;;4971510;28;19917;-66
2022/06/23 02:38:47;;;;;;;;;;;;;;;;;;4987224;28;19925;-66
2022/06/23 02:41:12;;;;;;;;;;;;;;;;;;4969755;28;20066;-65
2022/06/23 02:43:37;;;;;;;;;;;;;;;;;;4971232;28;19931;-66
2022/06/23 02:46:03;;;;;;;;;;;;;;;;;;4955401;28;20302;-66
2022/06/23 02:48:28;;;;;;;;;;;;;;;;;;4951049;28;19924;-66
2022/06/23 02:50:53;;;;;;;;;;;;;;;;;;4948853;28;19914;-65
2022/06/23 02:53:18;;;;;;;;;;;;;;;;;;4951808;28;19960;-66
2022/06/23 02:55:46;;;;;;;;;;;;;;;;;;4951951;28;19918;-65
2022/06/23 02:58:11;;;;;;;;;;;;;;;;;;4952228;28;19972;-65
2022/06/23 03:00:36;;;;;;;;;;;;;;;;;;4952892;28;19921;-65
2022/06/23 03:03:04;;;;;;;;;;;;;;;;;;4951820;28;19917;-65
2022/06/23 03:05:30;;;;;;;;;;;;;;;;;;4952027;28;19929;-66
2022/06/23 03:07:55;;;;;;;;;;;;;;;;;;4951537;28;19929;-65
2022/06/23 03:10:20;;;;;;;;;;;;;;;;;;4952197;28;19918;-65
2022/06/23 03:12:45;;;;;;;;;;;;;;;;;;4966041;28;19918;-66
2022/06/23 03:15:10;;;;;;;;;;;;;;;;;;4951226;28;20083;-66
2022/06/23 03:17:36;;;;;;;;;;;;;;;;;;4952334;28;19992;-65
2022/06/23 03:20:01;;;;;;;;;;;;;;;;;;4951294;28;19914;-66
2022/06/23 03:22:26;;;;;;;;;;;;;;;;;;4952642;28;19924;-67
2022/06/23 03:24:52;;;;;;;;;;;;;;;;;;4948557;28;19983;-66
2022/06/23 03:27:17;;;;;;;;;;;;;;;;;;4949675;28;19918;-66
2022/06/23 03:29:42;;;;;;;;;;;;;;;;;;4974641;28;19995;-67
2022/06/23 03:32:10;;;;;;;;;;;;;;;;;;4969157;28;19917;-67
2022/06/23 03:34:35;;;;;;;;;;;;;;;;;;4983339;28;20002;-66
2022/06/23 03:37:02;;;;;;;;;;;;;;;;;;4968363;28;19921;-67
2022/06/23 03:42:11;;;;;;;;;;;;;;;;;;4948655;28;19953;-67
2022/06/23 03:44:37;;;;;;;;;;;;;;;;;;4950038;28;19929;-68
2022/06/23 03:47:03;;;;;;;;;;;;;;;;;;4948815;28;19925;-68
2022/06/23 03:49:28;;;;;;;;;;;;;;;;;;4949613;28;19917;-68
2022/06/23 03:51:53;;;;;;;;;;;;;;;;;;4949790;28;20111;-67
2022/06/23 03:54:18;;;;;;;;;;;;;;;;;;4949306;28;20393;-68
2022/06/23 03:56:43;;;;;;;;;;;;;;;;;;4950016;28;20107;-66
2022/06/23 03:59:09;;;;;;;;;;;;;;;;;;4938676;28;19918;-67
2022/06/23 04:01:34;;;;;;;;;;;;;;;;;;4950201;28;19914;-67
2022/06/23 04:03:59;;;;;;;;;;;;;;;;;;4964457;28;19990;-67
2022/06/23 04:06:24;;;;;;;;;;;;;;;;;;4949106;28;20031;-67
2022/06/23 04:08:49;;;;;;;;;;;;;;;;;;4948721;28;19921;-67
2022/06/23 04:13:58;;;;;;;;;;;;;;;;;;4949515;28;20460;-66
2022/06/23 04:16:23;;;;;;;;;;;;;;;;;;4948788;28;19924;-67
2022/06/23 04:18:49;;;;;;;;;;;;;;;;;;4949109;28;19917;-66
2022/06/23 04:21:14;;;;;;;;;;;;;;;;;;4948902;28;19957;-66
2022/06/23 04:23:39;;;;;;;;;;;;;;;;;;4950628;28;19933;-66
2022/06/23 04:26:04;;;;;;;;;;;;;;;;;;4966409;28;20088;-67
2022/06/23 04:28:29;;;;;;;;;;;;;;;;;;4964679;28;19913;-66
2022/06/23 04:30:55;;;;;;;;;;;;;;;;;;4951801;28;19918;-67
2022/06/23 04:33:20;;;;;;;;;;;;;;;;;;4975929;28;19917;-66
2022/06/23 04:35:45;;;;;;;;;;;;;;;;;;4969867;28;19914;-66
2022/06/23 04:38:10;;;;;;;;;;;;;;;;;;4971212;28;19968;-67
2022/06/23 04:40:36;;;;;;;;;;;;;;;;;;4969884;28;19952;-66
2022/06/23 04:43:01;;;;;;;;;;;;;;;;;;4974712;28;19913;-67
2022/06/23 04:45:27;;;;;;;;;;;;;;;;;;4974257;28;19929;-66
2022/06/23 04:47:52;;;;;;;;;;;;;;;;;;4975336;28;19921;-67
2022/06/23 04:50:17;;;;;;;;;;;;;;;;;;4973440;28;20039;-66
2022/06/23 04:52:42;;;;;;;;;;;;;;;;;;4975044;28;20141;-67
2022/06/23 04:55:07;;;;;;;;;;;;;;;;;;4989070;28;19921;-67
2022/06/23 04:57:33;;;;;;;;;;;;;;;;;;4988950;28;19925;-68
2022/06/23 04:59:58;;;;;;;;;;;;;;;;;;4974600;28;20598;-67
2022/06/23 05:02:23;;;;;;;;;;;;;;;;;;4973707;28;19920;-67
2022/06/23 05:04:49;;;;;;;;;;;;;;;;;;4974969;28;19925;-67
2022/06/23 05:07:14;;;;;;;;;;;;;;;;;;4972207;28;19914;-66
2022/06/23 05:09:39;;;;;;;;;;;;;;;;;;4974228;28;20515;-66
2022/06/23 05:12:05;;;;;;;;;;;;;;;;;;4973564;28;19917;-66
2022/06/23 05:14:30;;;;;;;;;;;;;;;;;;4974466;28;20201;-66
2022/06/23 05:16:55;;;;;;;;;;;;;;;;;;4974440;28;20154;-67
2022/06/23 05:19:20;;;;;;;;;;;;;;;;;;4974536;28;19990;-66
2022/06/23 05:21:45;;;;;;;;;;;;;;;;;;4973543;28;19991;-66
2022/06/23 05:24:10;;;;;;;;;;;;;;;;;;4972709;28;19925;-66
2022/06/23 05:26:35;;;;;;;;;;;;;;;;;;4974631;28;19924;-67
2022/06/23 05:29:01;;;;;;;;;;;;;;;;;;4972984;28;20012;-66
2022/06/23 05:31:26;;;;;;;;;;;;;;;;;;4973858;28;19957;-67
2022/06/23 05:33:51;;;;;;;;;;;;;;;;;;4973159;28;19925;-66
2022/06/23 05:36:16;;;;;;;;;;;;;;;;;;4986270;28;20020;-67
2022/06/23 05:38:41;;;;;;;;;;;;;;;;;;4988373;28;22135;-67
2022/06/23 05:41:07;;;;;;;;;;;;;;;;;;4973045;28;19928;-66
2022/06/23 05:43:33;;;;;;;;;;;;;;;;;;4988998;28;20668;-67
2022/06/23 05:45:59;;;;;;;;;;;;;;;;;;4972637;28;19917;-67
2022/06/23 05:48:24;;;;;;;;;;;;;;;;;;4978964;28;20036;-66
2022/06/23 05:50:49;;;;;;;;;;;;;;;;;;4957259;28;20040;-66
2022/06/23 05:53:15;;;;;;;;;;;;;;;;;;4953445;28;19913;-65
2022/06/23 05:55:40;;;;;;;;;;;;;;;;;;4968044;28;19924;-65
2022/06/23 05:58:05;;;;;;;;;;;;;;;;;;4953935;28;20009;-66
2022/06/23 06:00:30;;;;;;;;;;;;;;;;;;4952852;28;19913;-66
2022/06/23 06:02:55;;;;;;;;;;;;;;;;;;4967145;28;20471;-67
2022/06/23 06:05:20;;;;;;;;;;;;;;;;;;4953955;28;19930;-67
2022/06/23 06:07:46;;;;;;;;;;;;;;;;;;4954298;28;20546;-67
2022/06/23 06:10:14;;;;;;;;;;;;;;;;;;4953623;28;19914;-66
2022/06/23 06:12:39;;;;;;;;;;;;;;;;;;4954655;28;20020;-68
2022/06/23 06:15:04;;;;;;;;;;;;;;;;;;4952332;28;19952;-66
2022/06/23 06:17:30;;;;;;;;;;;;;;;;;;4953499;28;20051;-68
2022/06/23 06:19:55;;;;;;;;;;;;;;;;;;4953171;28;20012;-66
2022/06/23 06:22:20;;;;;;;;;;;;;;;;;;4954268;28;19921;-66
2022/06/23 06:24:45;;;;;;;;;;;;;;;;;;4968214;28;20040;-67
2022/06/23 06:27:10;;;;;;;;;;;;;;;;;;4952900;28;19918;-66
2022/06/23 06:29:36;;;;;;;;;;;;;;;;;;4955145;28;19921;-65
2022/06/23 06:32:01;;;;;;;;;;;;;;;;;;4950639;28;19917;-66
2022/06/23 06:34:26;;;;;;;;;;;;;;;;;;4950142;28;19967;-66
2022/06/23 06:36:51;;;;;;;;;;;;;;;;;;4963218;28;20658;-66
2022/06/23 06:39:19;;;;;;;;;;;;;;;;;;4950595;28;19956;-66
2022/06/23 06:41:45;;;;;;;;;;;;;;;;;;4949216;28;20152;-66
2022/06/23 06:44:10;;;;;;;;;;;;;;;;;;4950579;28;20008;-66
2022/06/23 06:46:36;;;;;;;;;;;;;;;;;;4949786;28;20191;-66
2022/06/23 06:49:01;;;;;;;;;;;;;;;;;;4963453;28;20597;-66
2022/06/23 06:51:26;;;;;;;;;;;;;;;;;;4948608;28;19918;-66
2022/06/23 06:53:52;;;;;;;;;;;;;;;;;;4948780;28;20353;-65
2022/06/23 06:56:17;;;;;;;;;;;;;;;;;;4963780;28;20093;-66
2022/06/23 06:58:42;;;;;;;;;;;;;;;;;;4963225;28;19936;-66
2022/06/23 07:01:07;;;;;;;;;;;;;;;;;;4949440;28;20591;-66
2022/06/23 07:03:32;;;;;;;;;;;;;;;;;;4948930;28;19913;-66
2022/06/23 07:05:58;;;;;;;;;;;;;;;;;;4946836;28;20103;-67
2022/06/23 07:08:23;;;;;;;;;;;;;;;;;;4964782;28;19997;-68
2022/06/23 07:10:48;;;;;;;;;;;;;;;;;;4965766;28;19924;-69
2022/06/23 07:13:13;;;;;;;;;;;;;;;;;;4953502;28;19972;-71
2022/06/23 07:15:39;;;;;;;;;;;;;;;;;;4951427;28;19992;-70
2022/06/23 07:18:04;;;;;;;;;;;;;;;;;;4949115;28;20890;-68
2022/06/23 07:20:30;;;;;;;;;;;;;;;;;;4949347;28;19917;-69
2022/06/23 07:22:55;;;;;;;;;;;;;;;;;;4966866;28;20008;-69
2022/06/23 07:25:20;;;;;;;;;;;;;;;;;;4951914;28;20036;-69
2022/06/23 07:27:46;;;;;;;;;;;;;;;;;;4951806;28;19967;-69
2022/06/23 07:30:14;;;;;;;;;;;;;;;;;;4951440;28;19913;-70
2022/06/23 07:32:39;;;;;;;;;;;;;;;;;;4951064;28;19925;-70
2022/06/23 07:35:05;;;;;;;;;;;;;;;;;;4950906;28;19914;-68
2022/06/23 07:37:32;;;;;;;;;;;;;;;;;;4963970;28;19934;-69
2022/06/23 07:40:03;;;;;;;;;;;;;;;;;;4948054;28;19917;-69
2022/06/23 07:42:28;;;;;;;;;;;;;;;;;;4947289;28;19932;-69
2022/06/23 07:44:56;;;;;;;;;;;;;;;;;;4947057;28;19934;-70
2022/06/23 07:47:24;;;;;;;;;;;;;;;;;;4948013;28;19917;-69
2022/06/23 07:49:49;;;;;;;;;;;;;;;;;;4947548;28;19925;-71
2022/06/23 07:52:14;;;;;;;;;;;;;;;;;;4946992;28;19968;-68
2022/06/23 07:54:40;;;;;;;;;;;;;;;;;;4947592;28;22220;-69
2022/06/23 07:57:05;;;;;;;;;;;;;;;;;;4962118;28;19921;-69
2022/06/23 07:59:30;;;;;;;;;;;;;;;;;;4947062;28;19963;-68
2022/06/23 08:01:55;;;;;;;;;;;;;;;;;;4947867;28;20007;-69
2022/06/23 08:04:20;;;;;;;;;;;;;;;;;;4961709;28;19925;-69
2022/06/23 08:06:47;;;;;;;;;;;;;;;;;;4946246;28;20648;-68
2022/06/23 08:09:12;;;;;;;;;;;;;;;;;;4947687;28;20036;-69
2022/06/23 08:14:22;;;;;;;;;;;;;;;;;;4957913;28;20479;-69
2022/06/23 08:16:50;;;;;;;;;;;;;;;;;;4948761;28;20495;-71
2022/06/23 08:19:16;;;;;;;;;;;;;;;;;;4951119;28;20024;-70
2022/06/23 08:21:46;;;;;;;;;;;;;;;;;;4965648;28;20812;-69
2022/06/23 08:24:11;;;;;;;;;;;;;;;;;;4951343;28;19922;-70
2022/06/23 08:26:37;;;;;;;;;;;;;;;;;;4951397;28;19918;-69
2022/06/23 08:29:02;;;;;;;;;;;;;;;;;;4953030;28;19917;-70
2022/06/23 08:31:27;;;;;;;;;;;;;;;;;;4952747;28;19917;-69
2022/06/23 08:33:52;;;;;;;;;;;;;;;;;;4959289;28;20668;-70
2022/06/23 08:36:18;;;;;;;;;;;;;;;;;;4954433;28;20100;-70
2022/06/23 08:38:43;;;;;;;;;;;;;;;;;;4967981;28;20447;-70
2022/06/23 08:41:08;;;;;;;;;;;;;;;;;;4953373;28;19965;-71
2022/06/23 08:43:34;;;;;;;;;;;;;;;;;;4953740;28;19914;-71
2022/06/23 08:45:59;;;;;;;;;;;;;;;;;;4953652;28;19925;-71
2022/06/23 08:48:24;;;;;;;;;;;;;;;;;;4954208;28;19913;-72
2022/06/23 08:50:49;;;;;;;;;;;;;;;;;;4953587;28;19921;-73
2022/06/23 08:53:14;;;;;;;;;;;;;;;;;;4953594;28;19918;-68
2022/06/23 08:55:39;;;;;;;;;;;;;;;;;;4953393;28;19968;-68
2022/06/23 08:58:04;;;;;;;;;;;;;;;;;;4953220;28;19960;-68
2022/06/23 09:00:32;;;;;;;;;;;;;;;;;;4954086;28;19917;-68
2022/06/23 09:02:57;;;;;;;;;;;;;;;;;;4953221;28;19924;-69
2022/06/23 09:05:22;;;;;;;;;;;;;;;;;;4952313;28;19922;-67
2022/06/23 09:07:47;;;;;;;;;;;;;;;;;;4958011;28;19928;-67
2022/06/23 09:10:12;;;;;;;;;;;;;;;;;;4967446;28;19963;-69
2022/06/23 09:12:40;;;;;;;;;;;;;;;;;;4953414;28;20507;-68
2022/06/23 09:15:05;;;;;;;;;;;;;;;;;;4952223;28;19914;-68
2022/06/23 09:17:31;;;;;;;;;;;;;;;;;;4968517;28;19918;-69
2022/06/23 09:19:57;;;;;;;;;;;;;;;;;;4967334;28;20013;-68
2022/06/23 09:22:22;;;;;;;;;;;;;;;;;;4955766;28;19917;-68
2022/06/23 09:24:47;;;;;;;;;;;;;;;;;;4955342;28;20028;-68
2022/06/23 09:27:12;;;;;;;;;;;;;;;;;;4951347;28;19917;-68
2022/06/23 09:29:40;;;;;;;;;;;;;;;;;;4950741;28;20007;-68
2022/06/23 09:32:05;;;;;;;;;;;;;;;;;;4953327;28;20804;-67
2022/06/23 09:34:31;;;;;;;;;;;;;;;;;;4952450;28;19913;-67
2022/06/23 09:36:56;;;;;;;;;;;;;;;;;;4953835;28;20000;-67
2022/06/23 09:39:21;;;;;;;;;;;;;;;;;;4952150;28;20353;-68
2022/06/23 09:41:46;;;;;;;;;;;;;;;;;;4955583;28;19990;-68
2022/06/23 09:44:12;;;;;;;;;;;;;;;;;;4953218;28;21013;-68
2022/06/23 09:46:37;;;;;;;;;;;;;;;;;;4967808;28;20103;-67
2022/06/23 09:49:02;;;;;;;;;;;;;;;;;;4969342;28;19952;-67
2022/06/23 09:51:27;;;;;;;;;;;;;;;;;;4964985;28;19918;-68
2022/06/23 09:53:52;;;;;;;;;;;;;;;;;;4950759;28;22675;-69
2022/06/23 09:56:17;;;;;;;;;;;;;;;;;;4963590;28;20209;-69
2022/06/23 09:58:43;;;;;;;;;;;;;;;;;;4956428;28;20717;-69
2022/06/23 10:01:11;;;;;;;;;;;;;;;;;;4949113;28;19914;-68
2022/06/23 10:03:36;;;;;;;;;;;;;;;;;;4963434;28;21470;-69
2022/06/23 10:06:01;;;;;;;;;;;;;;;;;;4951759;28;20001;-69
2022/06/23 10:08:27;;;;;;;;;;;;;;;;;;4950894;28;19918;-69
2022/06/23 10:10:52;;;;;;;;;;;;;;;;;;4949420;28;20266;-69
2022/06/23 10:13:17;;;;;;;;;;;;;;;;;;4949119;28;19945;-70
2022/06/23 10:15:43;;;;;;;;;;;;;;;;;;4950942;28;20143;-68
2022/06/23 10:18:08;;;;;;;;;;;;;;;;;;4950562;28;19929;-69
2022/06/23 10:20:34;;;;;;;;;;;;;;;;;;4949774;28;20129;-68
2022/06/23 10:22:59;;;;;;;;;;;;;;;;;;4950094;28;19917;-68
2022/06/23 10:25:24;;;;;;;;;;;;;;;;;;4949393;28;21936;-68
2022/06/23 10:27:49;;;;;;;;;;;;;;;;;;4964832;28;19980;-71
2022/06/23 10:30:15;;;;;;;;;;;;;;;;;;4950629;28;20674;-69
2022/06/23 10:32:40;;;;;;;;;;;;;;;;;;4949753;28;19922;-68
2022/06/23 10:35:06;;;;;;;;;;;;;;;;;;4947978;28;20522;-67
2022/06/23 10:37:31;;;;;;;;;;;;;;;;;;4948717;28;19918;-68
2022/06/23 10:39:57;;;;;;;;;;;;;;;;;;4951267;28;20102;-68
2022/06/23 10:42:25;;;;;;;;;;;;;;;;;;4948794;28;19933;-70
2022/06/23 10:44:52;;;;;;;;;;;;;;;;;;4949397;28;19929;-70
2022/06/23 10:47:19;;;;;;;;;;;;;;;;;;4949624;28;19995;-69
2022/06/23 10:49:44;;;;;;;;;;;;;;;;;;4959530;28;19917;-69
2022/06/23 10:52:09;;;;;;;;;;;;;;;;;;4949137;28;19957;-69
2022/06/23 10:54:34;;;;;;;;;;;;;;;;;;4949892;28;20422;-70
2022/06/23 10:57:01;;;;;;;;;;;;;;;;;;4964108;28;20216;-69
2022/06/23 10:59:26;;;;;;;;;;;;;;;;;;4951696;28;19918;-70
2022/06/23 11:01:52;;;;;;;;;;;;;;;;;;4949058;28;19937;-69
2022/06/23 11:04:17;;;;;;;;;;;;;;;;;;4950397;28;20288;-69
2022/06/23 11:06:43;;;;;;;;;;;;;;;;;;4948850;28;20448;-69
2022/06/23 11:09:08;;;;;;;;;;;;;;;;;;4949330;28;19996;-69
2022/06/23 11:11:33;;;;;;;;;;;;;;;;;;4963070;28;22604;-69
2022/06/23 11:13:59;;;;;;;;;;;;;;;;;;4949564;28;20426;-69
2022/06/23 11:16:24;;;;;;;;;;;;;;;;;;4948913;28;20317;-68
2022/06/23 11:18:50;;;;;;;;;;;;;;;;;;4957089;28;20261;-70
2022/06/23 11:21:15;;;;;;;;;;;;;;;;;;4947920;28;19953;-70
2022/06/23 11:23:40;;;;;;;;;;;;;;;;;;4963062;28;20036;-70
2022/06/23 11:26:05;;;;;;;;;;;;;;;;;;4949981;28;20035;-69
2022/06/23 11:28:31;;;;;;;;;;;;;;;;;;4948311;28;20266;-70
2022/06/23 11:30:56;;;;;;;;;;;;;;;;;;4963311;28;19996;-70
2022/06/23 11:33:21;;;;;;;;;;;;;;;;;;4948576;28;19925;-70
2022/06/23 11:35:46;;;;;;;;;;;;;;;;;;4948906;28;20427;-70
2022/06/23 11:38:12;;;;;;;;;;;;;;;;;;4949514;28;20036;-69
2022/06/23 11:40:37;;;;;;;;;;;;;;;;;;4951759;28;19925;-69
2022/06/23 11:43:02;;;;;;;;;;;;;;;;;;4950084;28;20111;-71
2022/06/23 11:45:27;;;;;;;;;;;;;;;;;;4947789;28;20409;-69
2022/06/23 11:47:54;;;;;;;;;;;;;;;;;;4949799;28;20258;-71
2022/06/23 11:50:20;;;;;;;;;;;;;;;;;;4948390;28;20859;-67
2022/06/23 11:52:45;;;;;;;;;;;;;;;;;;4953325;28;22137;-67
2022/06/23 11:55:10;;;;;;;;;;;;;;;;;;4951997;28;19921;-68
2022/06/23 11:57:36;;;;;;;;;;;;;;;;;;4951927;28;19914;-75
2022/06/23 12:00:02;;;;;;;;;;;;;;;;;;4951983;28;19969;-69
2022/06/23 12:02:27;;;;;;;;;;;;;;;;;;4952180;28;20326;-69
2022/06/23 12:04:52;;;;;;;;;;;;;;;;;;4950417;28;19932;-69
2022/06/23 12:07:17;;;;;;;;;;;;;;;;;;4951401;28;20937;-68
2022/06/23 12:09:45;;;;;;;;;;;;;;;;;;4951683;28;19914;-68
2022/06/23 12:12:10;;;;;;;;;;;;;;;;;;4965400;28;20568;-69
2022/06/23 12:14:35;;;;;;;;;;;;;;;;;;4950576;28;19924;-69
2022/06/23 12:17:03;;;;;;;;;;;;;;;;;;4966690;28;19918;-67
2022/06/23 12:19:28;;;;;;;;;;;;;;;;;;4950677;28;19917;-67
2022/06/23 12:21:57;;;;;;;;;;;;;;;;;;4951253;28;20643;-70
2022/06/23 12:24:22;;;;;;;;;;;;;;;;;;4948905;28;19922;-68
2022/06/23 12:26:50;;;;;;;;;;;;;;;;;;4952229;28;20016;-68
2022/06/23 12:29:17;;;;;;;;;;;;;;;;;;4950697;28;19925;-69
2022/06/23 12:31:44;;;;;;;;;;;;;;;;;;4951455;28;20063;-67
2022/06/23 12:34:09;;;;;;;;;;;;;;;;;;4951401;28;19917;-68
2022/06/23 12:36:35;;;;;;;;;;;;;;;;;;4950867;28;19955;-68
2022/06/23 12:39:03;;;;;;;;;;;;;;;;;;4952133;28;19917;-71
2022/06/23 12:41:31;;;;;;;;;;;;;;;;;;4951553;28;19964;-70
2022/06/23 12:43:56;;;;;;;;;;;;;;;;;;4950540;28;19996;-71
2022/06/23 12:46:21;;;;;;;;;;;;;;;;;;4951518;28;20622;-72
2022/06/23 12:48:46;;;;;;;;;;;;;;;;;;4951021;28;19926;-70
2022/06/23 12:51:12;;;;;;;;;;;;;;;;;;4951064;28;19914;-68
2022/06/23 12:53:39;;;;;;;;;;;;;;;;;;4950984;28;19921;-63
2022/06/23 12:56:04;;;;;;;;;;;;;;;;;;4966055;28;19917;-68
2022/06/23 12:58:30;;;;;;;;;;;;;;;;;;4966139;28;19993;-68
2022/06/23 13:00:57;;;;;;;;;;;;;;;;;;4951126;28;20083;-69
2022/06/23 13:03:25;;;;;;;;;;;;;;;;;;4951677;28;19995;-69
2022/06/23 13:05:50;;;;;;;;;;;;;;;;;;4953888;28;19925;-69
2022/06/23 13:08:15;;;;;;;;;;;;;;;;;;4954003;28;20044;-69
2022/06/23 13:10:41;;;;;;;;;;;;;;;;;;4954181;28;19918;-67
2022/06/23 13:13:06;;;;;;;;;;;;;;;;;;4954489;28;20279;-68
2022/06/23 13:15:31;;;;;;;;;;;;;;;;;;4954731;28;19913;-68
2022/06/23 13:17:57;;;;;;;;;;;;;;;;;;4954541;28;19914;-68
2022/06/23 13:20:25;;;;;;;;;;;;;;;;;;4954029;28;19928;-67
2022/06/23 13:22:50;;;;;;;;;;;;;;;;;;4954304;28;19913;-66
2022/06/23 13:25:16;;;;;;;;;;;;;;;;;;4946477;28;19926;-67
2022/06/23 13:27:41;;;;;;;;;;;;;;;;;;4952881;28;19917;-68
2022/06/23 13:30:06;;;;;;;;;;;;;;;;;;4952293;28;21918;-68
2022/06/23 13:32:32;;;;;;;;;;;;;;;;;;4950568;28;19933;-67
2022/06/23 13:34:57;;;;;;;;;;;;;;;;;;4965268;28;19956;-67
2022/06/23 13:37:25;;;;;;;;;;;;;;;;;;4951661;28;20401;-67
2022/06/23 13:39:50;;;;;;;;;;;;;;;;;;4953193;28;19956;-68
2022/06/23 13:42:15;;;;;;;;;;;;;;;;;;4951431;28;20234;-68
2022/06/23 13:44:40;;;;;;;;;;;;;;;;;;4965995;28;20011;-68
2022/06/23 13:47:08;;;;;;;;;;;;;;;;;;4952065;28;19913;-68
2022/06/23 13:49:33;;;;;;;;;;;;;;;;;;4965829;28;19972;-68
2022/06/23 13:52:01;;;;;;;;;;;;;;;;;;4951445;28;20629;-66
2022/06/23 13:54:27;;;;;;;;;;;;;;;;;;4951393;28;19962;-71
2022/06/23 13:56:53;;;;;;;;;;;;;;;;;;4950471;28;20037;-69
2022/06/23 13:59:20;;;;;;;;;;;;;;;;;;4965615;28;19920;-69
2022/06/23 14:01:45;;;;;;;;;;;;;;;;;;4952311;28;19961;-68
2022/06/23 14:04:10;;;;;;;;;;;;;;;;;;4951400;28;20029;-66
2022/06/23 14:06:38;;;;;;;;;;;;;;;;;;4951367;28;20433;-67
2022/06/23 14:09:03;;;;;;;;;;;;;;;;;;4952434;28;20812;-68
2022/06/23 14:11:28;;;;;;;;;;;;;;;;;;4936064;28;19917;-65
2022/06/23 14:13:54;;;;;;;;;;;;;;;;;;4965083;28;20376;-67
2022/06/23 14:16:22;;;;;;;;;;;;;;;;;;4951339;28;19925;-67
2022/06/23 14:18:47;;;;;;;;;;;;;;;;;;4971560;28;21123;-66
2022/06/23 14:21:13;;;;;;;;;;;;;;;;;;4969509;28;19914;-67
2022/06/23 14:23:41;;;;;;;;;;;;;;;;;;4955450;28;20044;-66
2022/06/23 14:26:07;;;;;;;;;;;;;;;;;;4966100;28;20031;-66
2022/06/23 14:28:32;;;;;;;;;;;;;;;;;;4965322;28;20424;-67
2022/06/23 14:30:57;;;;;;;;;;;;;;;;;;4951981;28;19918;-67
2022/06/23 14:33:23;;;;;;;;;;;;;;;;;;4950360;28;19913;-67
2022/06/23 14:35:49;;;;;;;;;;;;;;;;;;4952115;28;19918;-67
2022/06/23 14:38:14;;;;;;;;;;;;;;;;;;4950960;28;19973;-67
2022/06/23 14:40:42;;;;;;;;;;;;;;;;;;4948269;28;19918;-67
2022/06/23 14:43:07;;;;;;;;;;;;;;;;;;4949446;28;19985;-67
2022/06/23 14:45:32;;;;;;;;;;;;;;;;;;4948464;28;19937;-68
2022/06/23 14:48:00;;;;;;;;;;;;;;;;;;4963379;28;20679;-67
2022/06/23 14:50:25;;;;;;;;;;;;;;;;;;4948444;28;19917;-66
2022/06/23 14:52:51;;;;;;;;;;;;;;;;;;4948164;28;20001;-66
2022/06/23 14:55:16;;;;;;;;;;;;;;;;;;4949590;28;20756;-68
2022/06/23 14:57:41;;;;;;;;;;;;;;;;;;4948381;28;19960;-67
2022/06/23 15:00:07;;;;;;;;;;;;;;;;;;4966491;28;19920;-66
2022/06/23 15:02:32;;;;;;;;;;;;;;;;;;4951033;28;20406;-66
2022/06/23 15:04:57;;;;;;;;;;;;;;;;;;4965428;28;19921;-67
2022/06/23 15:07:22;;;;;;;;;;;;;;;;;;4963621;28;22257;-66
2022/06/23 15:09:50;;;;;;;;;;;;;;;;;;4951653;28;19918;-66
2022/06/23 15:12:15;;;;;;;;;;;;;;;;;;4953658;28;20067;-66
2022/06/23 15:14:41;;;;;;;;;;;;;;;;;;4949386;28;19918;-67
2022/06/23 15:17:06;;;;;;;;;;;;;;;;;;4950384;28;19952;-67
2022/06/23 15:19:31;;;;;;;;;;;;;;;;;;4949994;28;19920;-68
2022/06/23 15:24:43;;;;;;;;;;;;;;;;;;4950524;28;22473;-68
2022/06/23 15:27:08;;;;;;;;;;;;;;;;;;4949910;28;19933;-67
2022/06/23 15:29:33;;;;;;;;;;;;;;;;;;4963833;28;20060;-66
2022/06/23 15:32:01;;;;;;;;;;;;;;;;;;4951731;28;22268;-66
2022/06/23 15:34:26;;;;;;;;;;;;;;;;;;4948865;28;19949;-66
2022/06/23 15:36:52;;;;;;;;;;;;;;;;;;4950209;28;19918;-66
2022/06/23 15:39:17;;;;;;;;;;;;;;;;;;4949871;28;19918;-66
2022/06/23 15:41:43;;;;;;;;;;;;;;;;;;4950173;28;19929;-66
2022/06/23 15:44:08;;;;;;;;;;;;;;;;;;4951191;28;20008;-67
2022/06/23 15:46:34;;;;;;;;;;;;;;;;;;4951658;28;19913;-66
2022/06/23 15:48:59;;;;;;;;;;;;;;;;;;4953932;28;19918;-66
2022/06/23 15:51:24;;;;;;;;;;;;;;;;;;4952117;28;20681;-67
2022/06/23 15:53:50;;;;;;;;;;;;;;;;;;4951693;28;19949;-66
2022/06/23 15:56:15;;;;;;;;;;;;;;;;;;4953637;28;20747;-67
2022/06/23 15:58:41;;;;;;;;;;;;;;;;;;4947281;28;20021;-67
2022/06/23 16:01:06;;;;;;;;;;;;;;;;;;4948515;28;19953;-67
2022/06/23 16:03:32;;;;;;;;;;;;;;;;;;4946286;28;20108;-66
2022/06/23 16:05:57;;;;;;;;;;;;;;;;;;4950406;28;22385;-67
2022/06/23 16:08:22;;;;;;;;;;;;;;;;;;4955491;28;19917;-67
2022/06/23 16:10:48;;;;;;;;;;;;;;;;;;4950231;28;19925;-67
2022/06/23 16:13:13;;;;;;;;;;;;;;;;;;4950693;28;19941;-67
2022/06/23 16:15:38;;;;;;;;;;;;;;;;;;4949523;28;19933;-66
2022/06/23 16:18:04;;;;;;;;;;;;;;;;;;4964599;28;20000;-68
2022/06/23 16:20:32;;;;;;;;;;;;;;;;;;4949365;28;19917;-68
2022/06/23 16:22:57;;;;;;;;;;;;;;;;;;4950381;28;19964;-67
2022/06/23 16:25:23;;;;;;;;;;;;;;;;;;4949971;28;19929;-67
2022/06/23 16:27:48;;;;;;;;;;;;;;;;;;4950645;28;19920;-67
2022/06/23 16:30:13;;;;;;;;;;;;;;;;;;4949170;28;20073;-67
2022/06/23 16:32:38;;;;;;;;;;;;;;;;;;4949990;28;20039;-65
2022/06/23 16:35:04;;;;;;;;;;;;;;;;;;4949940;28;19917;-66
2022/06/23 16:37:29;;;;;;;;;;;;;;;;;;4951254;28;21000;-67
2022/06/23 16:39:54;;;;;;;;;;;;;;;;;;4952905;28;19918;-66
2022/06/23 16:42:22;;;;;;;;;;;;;;;;;;4953793;28;20039;-68
2022/06/23 16:44:47;;;;;;;;;;;;;;;;;;4953977;28;19926;-68